sensor_id;sensor_type;location;lat;lon;timestamp;P1;durP1;ratioP1;P2;durP2;ratioP2
26920;SDS011;14483;47.844;9.660;2024-03-06T00:01:49;4.53;;;2.15;;
26920;SDS011;14483;47.844;9.660;2024-03-06T00:04:16;4.45;;;2.15;;
26920;SDS011;14483;47.844;9.660;2024-03-06T00:06:42;4.22;;;2.10;;
26920;SDS011;14483;47.844;9.660;2024-03-06T00:09:08;3.65;;;2.10;;
26920;SDS011;14483;47.844;9.660;2024-03-06T00:11:35;2.28;;;1.23;;
26920;SDS011;14483;47.844;9.660;2024-03-06T00:14:02;2.92;;;1.80;;
26920;SDS011;14483;47.844;9.660;2024-03-06T00:16:30;3.15;;;1.83;;
26920;SDS011;14483;47.844;9.660;2024-03-06T00:18:58;3.80;;;1.60;;
26920;SDS011;14483;47.844;9.660;2024-03-06T00:21:24;2.20;;;1.35;;
26920;SDS011;14483;47.844;9.660;2024-03-06T00:23:50;5.05;;;1.60;;
26920;SDS011;14483;47.844;9.660;2024-03-06T00:26:17;2.92;;;1.42;;
26920;SDS011;14483;47.844;9.660;2024-03-06T00:28:43;2.80;;;1.45;;
26920;SDS011;14483;47.844;9.660;2024-03-06T00:31:09;3.97;;;1.35;;
26920;SDS011;14483;47.844;9.660;2024-03-06T00:33:36;3.03;;;1.52;;
26920;SDS011;14483;47.844;9.660;2024-03-06T00:36:04;2.08;;;1.30;;
26920;SDS011;14483;47.844;9.660;2024-03-06T00:38:31;2.40;;;1.17;;
26920;SDS011;14483;47.844;9.660;2024-03-06T00:40:57;3.08;;;1.38;;
26920;SDS011;14483;47.844;9.660;2024-03-06T00:43:24;4.75;;;1.90;;
26920;SDS011;14483;47.844;9.660;2024-03-06T00:45:50;3.53;;;1.83;;
26920;SDS011;14483;47.844;9.660;2024-03-06T00:48:16;2.28;;;1.35;;
26920;SDS011;14483;47.844;9.660;2024-03-06T00:50:44;2.67;;;1.40;;
26920;SDS011;14483;47.844;9.660;2024-03-06T00:53:12;2.63;;;1.38;;
26920;SDS011;14483;47.844;9.660;2024-03-06T00:55:38;2.25;;;1.20;;
26920;SDS011;14483;47.844;9.660;2024-03-06T00:58:05;3.85;;;1.63;;
26920;SDS011;14483;47.844;9.660;2024-03-06T01:00:32;2.38;;;1.42;;
26920;SDS011;14483;47.844;9.660;2024-03-06T01:02:58;3.88;;;1.50;;
26920;SDS011;14483;47.844;9.660;2024-03-06T01:05:25;2.45;;;1.40;;
26920;SDS011;14483;47.844;9.660;2024-03-06T01:07:52;2.58;;;1.35;;
26920;SDS011;14483;47.844;9.660;2024-03-06T01:10:21;2.08;;;1.10;;
26920;SDS011;14483;47.844;9.660;2024-03-06T01:12:47;2.72;;;1.70;;
26920;SDS011;14483;47.844;9.660;2024-03-06T01:15:14;2.53;;;1.35;;
26920;SDS011;14483;47.844;9.660;2024-03-06T01:17:40;2.20;;;1.40;;
26920;SDS011;14483;47.844;9.660;2024-03-06T01:20:07;3.20;;;1.50;;
26920;SDS011;14483;47.844;9.660;2024-03-06T01:22:33;2.78;;;1.50;;
26920;SDS011;14483;47.844;9.660;2024-03-06T01:25:00;2.67;;;1.30;;
26920;SDS011;14483;47.844;9.660;2024-03-06T01:27:28;2.50;;;1.40;;
26920;SDS011;14483;47.844;9.660;2024-03-06T01:29:54;2.75;;;1.67;;
26920;SDS011;14483;47.844;9.660;2024-03-06T01:32:20;2.72;;;1.60;;
26920;SDS011;14483;47.844;9.660;2024-03-06T01:34:47;2.20;;;1.23;;
26920;SDS011;14483;47.844;9.660;2024-03-06T01:37:13;2.63;;;1.23;;
26920;SDS011;14483;47.844;9.660;2024-03-06T01:39:40;3.60;;;1.65;;
26920;SDS011;14483;47.844;9.660;2024-03-06T01:42:06;3.80;;;1.70;;
26920;SDS011;14483;47.844;9.660;2024-03-06T01:44:34;3.58;;;1.58;;
26920;SDS011;14483;47.844;9.660;2024-03-06T01:47:00;2.40;;;1.20;;
26920;SDS011;14483;47.844;9.660;2024-03-06T01:49:26;3.22;;;1.30;;
26920;SDS011;14483;47.844;9.660;2024-03-06T01:51:54;3.28;;;1.45;;
26920;SDS011;14483;47.844;9.660;2024-03-06T01:54:21;2.95;;;1.73;;
26920;SDS011;14483;47.844;9.660;2024-03-06T01:56:48;2.83;;;1.73;;
26920;SDS011;14483;47.844;9.660;2024-03-06T01:59:15;3.70;;;1.40;;
26920;SDS011;14483;47.844;9.660;2024-03-06T02:01:43;3.58;;;1.33;;
26920;SDS011;14483;47.844;9.660;2024-03-06T02:04:09;2.47;;;1.40;;
26920;SDS011;14483;47.844;9.660;2024-03-06T02:06:38;2.60;;;1.60;;
26920;SDS011;14483;47.844;9.660;2024-03-06T02:09:04;2.15;;;1.15;;
26920;SDS011;14483;47.844;9.660;2024-03-06T02:11:31;2.22;;;1.10;;
26920;SDS011;14483;47.844;9.660;2024-03-06T02:13:58;3.88;;;1.10;;
26920;SDS011;14483;47.844;9.660;2024-03-06T02:16:24;3.25;;;1.38;;
26920;SDS011;14483;47.844;9.660;2024-03-06T02:18:53;3.10;;;1.38;;
26920;SDS011;14483;47.844;9.660;2024-03-06T02:21:21;1.90;;;1.00;;
26920;SDS011;14483;47.844;9.660;2024-03-06T02:23:48;2.55;;;1.40;;
26920;SDS011;14483;47.844;9.660;2024-03-06T02:26:16;1.83;;;1.00;;
26920;SDS011;14483;47.844;9.660;2024-03-06T02:28:46;2.67;;;1.05;;
26920;SDS011;14483;47.844;9.660;2024-03-06T02:31:12;1.48;;;0.88;;
26920;SDS011;14483;47.844;9.660;2024-03-06T02:33:38;2.63;;;1.00;;
26920;SDS011;14483;47.844;9.660;2024-03-06T02:36:05;1.35;;;0.90;;
26920;SDS011;14483;47.844;9.660;2024-03-06T02:38:33;2.67;;;0.90;;
26920;SDS011;14483;47.844;9.660;2024-03-06T02:41:00;1.75;;;0.80;;
26920;SDS011;14483;47.844;9.660;2024-03-06T02:43:26;1.60;;;1.00;;
26920;SDS011;14483;47.844;9.660;2024-03-06T02:45:53;2.00;;;1.10;;
26920;SDS011;14483;47.844;9.660;2024-03-06T02:48:19;1.70;;;0.80;;
26920;SDS011;14483;47.844;9.660;2024-03-06T02:50:45;2.85;;;1.27;;
26920;SDS011;14483;47.844;9.660;2024-03-06T02:53:12;2.55;;;1.15;;
26920;SDS011;14483;47.844;9.660;2024-03-06T02:55:39;1.58;;;0.82;;
26920;SDS011;14483;47.844;9.660;2024-03-06T02:58:06;1.67;;;0.90;;
26920;SDS011;14483;47.844;9.660;2024-03-06T03:00:32;1.48;;;0.95;;
26920;SDS011;14483;47.844;9.660;2024-03-06T03:02:58;2.58;;;0.93;;
26920;SDS011;14483;47.844;9.660;2024-03-06T03:05:25;2.35;;;0.70;;
26920;SDS011;14483;47.844;9.660;2024-03-06T03:07:51;1.67;;;0.80;;
26920;SDS011;14483;47.844;9.660;2024-03-06T03:10:18;2.97;;;1.30;;
26920;SDS011;14483;47.844;9.660;2024-03-06T03:12:45;2.55;;;1.00;;
26920;SDS011;14483;47.844;9.660;2024-03-06T03:15:12;2.17;;;1.38;;
26920;SDS011;14483;47.844;9.660;2024-03-06T03:17:38;2.67;;;1.10;;
26920;SDS011;14483;47.844;9.660;2024-03-06T03:20:05;1.25;;;0.70;;
26920;SDS011;14483;47.844;9.660;2024-03-06T03:22:35;1.83;;;0.90;;
26920;SDS011;14483;47.844;9.660;2024-03-06T03:25:01;2.13;;;0.98;;
26920;SDS011;14483;47.844;9.660;2024-03-06T03:27:28;3.95;;;1.20;;
26920;SDS011;14483;47.844;9.660;2024-03-06T03:29:56;2.85;;;1.40;;
26920;SDS011;14483;47.844;9.660;2024-03-06T03:32:22;2.25;;;1.13;;
26920;SDS011;14483;47.844;9.660;2024-03-06T03:34:49;1.90;;;1.10;;
26920;SDS011;14483;47.844;9.660;2024-03-06T03:37:18;4.35;;;0.98;;
26920;SDS011;14483;47.844;9.660;2024-03-06T03:39:44;2.35;;;1.05;;
26920;SDS011;14483;47.844;9.660;2024-03-06T03:42:11;1.75;;;0.90;;
26920;SDS011;14483;47.844;9.660;2024-03-06T03:44:37;2.80;;;1.10;;
26920;SDS011;14483;47.844;9.660;2024-03-06T03:47:06;1.75;;;1.00;;
26920;SDS011;14483;47.844;9.660;2024-03-06T03:49:32;3.85;;;1.00;;
26920;SDS011;14483;47.844;9.660;2024-03-06T03:51:58;2.22;;;1.00;;
26920;SDS011;14483;47.844;9.660;2024-03-06T03:54:25;2.42;;;1.10;;
26920;SDS011;14483;47.844;9.660;2024-03-06T03:56:51;3.15;;;1.38;;
26920;SDS011;14483;47.844;9.660;2024-03-06T03:59:18;2.45;;;1.35;;
26920;SDS011;14483;47.844;9.660;2024-03-06T04:01:44;2.35;;;1.13;;
26920;SDS011;14483;47.844;9.660;2024-03-06T04:04:12;2.97;;;1.20;;
26920;SDS011;14483;47.844;9.660;2024-03-06T04:06:38;4.28;;;1.42;;
26920;SDS011;14483;47.844;9.660;2024-03-06T04:09:05;2.70;;;1.33;;
26920;SDS011;14483;47.844;9.660;2024-03-06T04:11:34;4.03;;;1.80;;
26920;SDS011;14483;47.844;9.660;2024-03-06T04:14:02;3.13;;;1.60;;
26920;SDS011;14483;47.844;9.660;2024-03-06T04:16:29;2.88;;;1.40;;
26920;SDS011;14483;47.844;9.660;2024-03-06T04:18:55;3.30;;;1.30;;
26920;SDS011;14483;47.844;9.660;2024-03-06T04:21:23;3.63;;;1.40;;
26920;SDS011;14483;47.844;9.660;2024-03-06T04:23:51;3.50;;;1.58;;
26920;SDS011;14483;47.844;9.660;2024-03-06T04:26:17;2.42;;;1.20;;
26920;SDS011;14483;47.844;9.660;2024-03-06T04:28:44;3.55;;;1.33;;
26920;SDS011;14483;47.844;9.660;2024-03-06T04:31:10;2.95;;;1.58;;
26920;SDS011;14483;47.844;9.660;2024-03-06T04:33:36;3.08;;;1.50;;
26920;SDS011;14483;47.844;9.660;2024-03-06T04:36:03;5.78;;;2.30;;
26920;SDS011;14483;47.844;9.660;2024-03-06T04:38:32;4.78;;;1.58;;
26920;SDS011;14483;47.844;9.660;2024-03-06T04:40:58;6.00;;;2.30;;
26920;SDS011;14483;47.844;9.660;2024-03-06T04:43:24;4.53;;;1.95;;
26920;SDS011;14483;47.844;9.660;2024-03-06T04:45:51;5.45;;;2.28;;
26920;SDS011;14483;47.844;9.660;2024-03-06T04:48:17;4.55;;;2.25;;
26920;SDS011;14483;47.844;9.660;2024-03-06T04:50:43;5.35;;;1.90;;
26920;SDS011;14483;47.844;9.660;2024-03-06T04:53:10;5.75;;;2.53;;
26920;SDS011;14483;47.844;9.660;2024-03-06T04:55:38;5.25;;;2.28;;
26920;SDS011;14483;47.844;9.660;2024-03-06T04:58:04;6.53;;;2.83;;
26920;SDS011;14483;47.844;9.660;2024-03-06T05:00:31;4.40;;;2.28;;
26920;SDS011;14483;47.844;9.660;2024-03-06T05:02:57;4.18;;;2.35;;
26920;SDS011;14483;47.844;9.660;2024-03-06T05:05:24;4.00;;;2.00;;
26920;SDS011;14483;47.844;9.660;2024-03-06T05:07:51;5.30;;;2.70;;
26920;SDS011;14483;47.844;9.660;2024-03-06T05:10:17;4.70;;;2.70;;
26920;SDS011;14483;47.844;9.660;2024-03-06T05:12:45;6.88;;;2.60;;
26920;SDS011;14483;47.844;9.660;2024-03-06T05:15:12;4.57;;;2.78;;
26920;SDS011;14483;47.844;9.660;2024-03-06T05:17:38;6.38;;;2.47;;
26920;SDS011;14483;47.844;9.660;2024-03-06T05:20:05;3.80;;;2.00;;
26920;SDS011;14483;47.844;9.660;2024-03-06T05:22:31;8.00;;;3.28;;
26920;SDS011;14483;47.844;9.660;2024-03-06T05:24:58;5.65;;;3.10;;
26920;SDS011;14483;47.844;9.660;2024-03-06T05:27:24;9.70;;;3.97;;
26920;SDS011;14483;47.844;9.660;2024-03-06T05:29:52;15.88;;;4.53;;
26920;SDS011;14483;47.844;9.660;2024-03-06T05:32:19;6.65;;;3.35;;
26920;SDS011;14483;47.844;9.660;2024-03-06T05:34:46;11.13;;;4.57;;
26920;SDS011;14483;47.844;9.660;2024-03-06T05:37:12;13.48;;;4.95;;
26920;SDS011;14483;47.844;9.660;2024-03-06T05:39:38;9.00;;;3.92;;
26920;SDS011;14483;47.844;9.660;2024-03-06T05:42:07;10.32;;;5.13;;
26920;SDS011;14483;47.844;9.660;2024-03-06T05:44:33;10.52;;;5.45;;
26920;SDS011;14483;47.844;9.660;2024-03-06T05:47:02;9.05;;;4.32;;
26920;SDS011;14483;47.844;9.660;2024-03-06T05:49:28;5.30;;;2.97;;
26920;SDS011;14483;47.844;9.660;2024-03-06T05:51:55;5.20;;;2.95;;
26920;SDS011;14483;47.844;9.660;2024-03-06T05:54:22;6.88;;;2.67;;
26920;SDS011;14483;47.844;9.660;2024-03-06T05:56:48;5.38;;;2.67;;
26920;SDS011;14483;47.844;9.660;2024-03-06T05:59:16;5.22;;;2.80;;
26920;SDS011;14483;47.844;9.660;2024-03-06T06:01:43;4.00;;;2.00;;
26920;SDS011;14483;47.844;9.660;2024-03-06T06:04:10;4.82;;;2.67;;
26920;SDS011;14483;47.844;9.660;2024-03-06T06:06:37;3.63;;;2.30;;
26920;SDS011;14483;47.844;9.660;2024-03-06T06:09:03;5.57;;;2.92;;
26920;SDS011;14483;47.844;9.660;2024-03-06T06:11:31;5.60;;;2.78;;
26920;SDS011;14483;47.844;9.660;2024-03-06T06:13:57;4.15;;;2.25;;
26920;SDS011;14483;47.844;9.660;2024-03-06T06:16:23;3.33;;;1.80;;
26920;SDS011;14483;47.844;9.660;2024-03-06T06:18:50;4.35;;;2.33;;
26920;SDS011;14483;47.844;9.660;2024-03-06T06:21:17;3.17;;;1.77;;
26920;SDS011;14483;47.844;9.660;2024-03-06T06:23:44;6.78;;;2.28;;
26920;SDS011;14483;47.844;9.660;2024-03-06T06:26:10;5.05;;;1.88;;
26920;SDS011;14483;47.844;9.660;2024-03-06T06:28:36;4.25;;;2.55;;
26920;SDS011;14483;47.844;9.660;2024-03-06T06:31:03;6.57;;;2.85;;
26920;SDS011;14483;47.844;9.660;2024-03-06T06:33:29;5.10;;;2.63;;
26920;SDS011;14483;47.844;9.660;2024-03-06T06:35:56;5.22;;;2.05;;
26920;SDS011;14483;47.844;9.660;2024-03-06T06:38:23;4.22;;;1.60;;
26920;SDS011;14483;47.844;9.660;2024-03-06T06:40:50;4.40;;;2.28;;
26920;SDS011;14483;47.844;9.660;2024-03-06T06:43:17;2.70;;;1.52;;
26920;SDS011;14483;47.844;9.660;2024-03-06T06:45:44;4.97;;;2.78;;
26920;SDS011;14483;47.844;9.660;2024-03-06T06:48:10;5.20;;;2.28;;
26920;SDS011;14483;47.844;9.660;2024-03-06T06:50:37;4.10;;;2.00;;
26920;SDS011;14483;47.844;9.660;2024-03-06T06:53:03;6.63;;;3.35;;
26920;SDS011;14483;47.844;9.660;2024-03-06T06:55:31;5.35;;;2.80;;
26920;SDS011;14483;47.844;9.660;2024-03-06T06:57:57;5.78;;;2.35;;
26920;SDS011;14483;47.844;9.660;2024-03-06T07:00:24;7.90;;;3.67;;
26920;SDS011;14483;47.844;9.660;2024-03-06T07:02:50;7.05;;;3.45;;
26920;SDS011;14483;47.844;9.660;2024-03-06T07:05:17;5.80;;;3.05;;
26920;SDS011;14483;47.844;9.660;2024-03-06T07:07:43;7.03;;;3.05;;
26920;SDS011;14483;47.844;9.660;2024-03-06T07:10:10;8.35;;;3.60;;
26920;SDS011;14483;47.844;9.660;2024-03-06T07:12:37;7.82;;;3.92;;
26920;SDS011;14483;47.844;9.660;2024-03-06T07:15:04;6.10;;;2.78;;
26920;SDS011;14483;47.844;9.660;2024-03-06T07:17:31;5.68;;;2.70;;
26920;SDS011;14483;47.844;9.660;2024-03-06T07:19:57;6.40;;;3.15;;
26920;SDS011;14483;47.844;9.660;2024-03-06T07:22:24;7.60;;;3.03;;
26920;SDS011;14483;47.844;9.660;2024-03-06T07:24:50;7.65;;;3.70;;
26920;SDS011;14483;47.844;9.660;2024-03-06T07:27:17;6.40;;;4.07;;
26920;SDS011;14483;47.844;9.660;2024-03-06T07:29:44;7.03;;;3.13;;
26920;SDS011;14483;47.844;9.660;2024-03-06T07:32:11;6.72;;;4.13;;
26920;SDS011;14483;47.844;9.660;2024-03-06T07:34:37;8.13;;;4.18;;
26920;SDS011;14483;47.844;9.660;2024-03-06T07:37:04;6.50;;;3.50;;
26920;SDS011;14483;47.844;9.660;2024-03-06T07:39:30;5.40;;;3.40;;
26920;SDS011;14483;47.844;9.660;2024-03-06T07:41:56;8.57;;;4.35;;
26920;SDS011;14483;47.844;9.660;2024-03-06T07:44:23;8.00;;;4.05;;
26920;SDS011;14483;47.844;9.660;2024-03-06T07:46:50;7.25;;;4.28;;
26920;SDS011;14483;47.844;9.660;2024-03-06T07:49:18;6.20;;;3.67;;
26920;SDS011;14483;47.844;9.660;2024-03-06T07:51:46;6.95;;;3.30;;
26920;SDS011;14483;47.844;9.660;2024-03-06T07:54:13;6.90;;;3.85;;
26920;SDS011;14483;47.844;9.660;2024-03-06T07:56:39;8.35;;;3.40;;
26920;SDS011;14483;47.844;9.660;2024-03-06T07:59:06;7.10;;;4.05;;
26920;SDS011;14483;47.844;9.660;2024-03-06T08:01:32;7.35;;;3.97;;
26920;SDS011;14483;47.844;9.660;2024-03-06T08:04:00;6.95;;;4.15;;
26920;SDS011;14483;47.844;9.660;2024-03-06T08:06:26;8.13;;;4.07;;
26920;SDS011;14483;47.844;9.660;2024-03-06T08:08:54;8.85;;;4.35;;
26920;SDS011;14483;47.844;9.660;2024-03-06T08:11:20;8.95;;;4.40;;
26920;SDS011;14483;47.844;9.660;2024-03-06T08:13:48;8.13;;;3.95;;
26920;SDS011;14483;47.844;9.660;2024-03-06T08:16:15;10.60;;;4.30;;
26920;SDS011;14483;47.844;9.660;2024-03-06T08:18:42;6.63;;;4.13;;
26920;SDS011;14483;47.844;9.660;2024-03-06T08:21:10;8.45;;;4.47;;
26920;SDS011;14483;47.844;9.660;2024-03-06T08:23:36;8.57;;;4.70;;
26920;SDS011;14483;47.844;9.660;2024-03-06T08:26:03;7.43;;;4.60;;
26920;SDS011;14483;47.844;9.660;2024-03-06T08:28:29;7.78;;;4.15;;
26920;SDS011;14483;47.844;9.660;2024-03-06T08:30:56;7.68;;;4.38;;
26920;SDS011;14483;47.844;9.660;2024-03-06T08:33:22;8.95;;;4.72;;
26920;SDS011;14483;47.844;9.660;2024-03-06T08:35:50;6.53;;;3.80;;
26920;SDS011;14483;47.844;9.660;2024-03-06T08:38:17;6.50;;;3.92;;
26920;SDS011;14483;47.844;9.660;2024-03-06T08:40:44;6.18;;;3.25;;
26920;SDS011;14483;47.844;9.660;2024-03-06T08:43:11;5.90;;;3.38;;
26920;SDS011;14483;47.844;9.660;2024-03-06T08:45:40;6.70;;;3.40;;
26920;SDS011;14483;47.844;9.660;2024-03-06T08:48:07;8.32;;;3.85;;
26920;SDS011;14483;47.844;9.660;2024-03-06T08:50:33;8.15;;;3.67;;
26920;SDS011;14483;47.844;9.660;2024-03-06T08:53:00;7.78;;;3.90;;
26920;SDS011;14483;47.844;9.660;2024-03-06T08:55:28;6.90;;;3.97;;
26920;SDS011;14483;47.844;9.660;2024-03-06T08:57:54;8.82;;;4.07;;
26920;SDS011;14483;47.844;9.660;2024-03-06T09:00:21;5.65;;;3.17;;
26920;SDS011;14483;47.844;9.660;2024-03-06T09:02:47;6.07;;;3.58;;
26920;SDS011;14483;47.844;9.660;2024-03-06T09:05:14;7.03;;;3.72;;
26920;SDS011;14483;47.844;9.660;2024-03-06T09:07:41;5.18;;;2.58;;
26920;SDS011;14483;47.844;9.660;2024-03-06T09:10:08;4.78;;;2.83;;
26920;SDS011;14483;47.844;9.660;2024-03-06T09:12:36;6.10;;;2.90;;
26920;SDS011;14483;47.844;9.660;2024-03-06T09:15:03;4.75;;;2.65;;
26920;SDS011;14483;47.844;9.660;2024-03-06T09:17:29;4.80;;;2.88;;
26920;SDS011;14483;47.844;9.660;2024-03-06T09:19:56;6.88;;;3.38;;
26920;SDS011;14483;47.844;9.660;2024-03-06T09:22:22;6.93;;;3.70;;
26920;SDS011;14483;47.844;9.660;2024-03-06T09:24:49;4.55;;;2.65;;
26920;SDS011;14483;47.844;9.660;2024-03-06T09:27:15;3.92;;;2.60;;
26920;SDS011;14483;47.844;9.660;2024-03-06T09:29:43;3.65;;;2.08;;
26920;SDS011;14483;47.844;9.660;2024-03-06T09:32:09;4.45;;;2.45;;
26920;SDS011;14483;47.844;9.660;2024-03-06T09:34:38;4.28;;;2.20;;
26920;SDS011;14483;47.844;9.660;2024-03-06T09:37:04;5.70;;;2.42;;
26920;SDS011;14483;47.844;9.660;2024-03-06T09:39:30;3.55;;;1.75;;
26920;SDS011;14483;47.844;9.660;2024-03-06T09:41:57;3.30;;;2.03;;
26920;SDS011;14483;47.844;9.660;2024-03-06T09:44:23;4.32;;;2.17;;
26920;SDS011;14483;47.844;9.660;2024-03-06T09:46:51;3.70;;;2.25;;
26920;SDS011;14483;47.844;9.660;2024-03-06T09:49:18;4.00;;;2.08;;
26920;SDS011;14483;47.844;9.660;2024-03-06T09:51:45;3.60;;;2.30;;
26920;SDS011;14483;47.844;9.660;2024-03-06T09:54:12;3.60;;;2.08;;
26920;SDS011;14483;47.844;9.660;2024-03-06T09:56:40;3.70;;;2.33;;
26920;SDS011;14483;47.844;9.660;2024-03-06T09:59:06;3.42;;;2.17;;
26920;SDS011;14483;47.844;9.660;2024-03-06T10:01:33;3.92;;;2.33;;
26920;SDS011;14483;47.844;9.660;2024-03-06T10:06:44;3.55;;;2.08;;
26920;SDS011;14483;47.844;9.660;2024-03-06T10:09:11;3.75;;;2.30;;
26920;SDS011;14483;47.844;9.660;2024-03-06T10:11:38;4.13;;;2.38;;
26920;SDS011;14483;47.844;9.660;2024-03-06T10:14:05;5.32;;;2.25;;
26920;SDS011;14483;47.844;9.660;2024-03-06T10:16:31;4.40;;;2.40;;
26920;SDS011;14483;47.844;9.660;2024-03-06T10:18:58;3.63;;;2.17;;
26920;SDS011;14483;47.844;9.660;2024-03-06T10:21:40;3.97;;;2.20;;
26920;SDS011;14483;47.844;9.660;2024-03-06T10:24:10;4.25;;;2.42;;
26920;SDS011;14483;47.844;9.660;2024-03-06T10:26:37;4.22;;;1.75;;
26920;SDS011;14483;47.844;9.660;2024-03-06T10:29:04;3.75;;;2.17;;
26920;SDS011;14483;47.844;9.660;2024-03-06T10:31:30;3.17;;;2.20;;
26920;SDS011;14483;47.844;9.660;2024-03-06T10:33:57;6.30;;;2.70;;
26920;SDS011;14483;47.844;9.660;2024-03-06T10:36:25;3.83;;;2.25;;
26920;SDS011;14483;47.844;9.660;2024-03-06T10:38:52;3.65;;;2.00;;
26920;SDS011;14483;47.844;9.660;2024-03-06T10:41:22;4.72;;;2.05;;
26920;SDS011;14483;47.844;9.660;2024-03-06T10:43:50;4.28;;;2.13;;
26920;SDS011;14483;47.844;9.660;2024-03-06T10:46:19;6.65;;;2.13;;
26920;SDS011;14483;47.844;9.660;2024-03-06T10:48:46;3.45;;;1.88;;
26920;SDS011;14483;47.844;9.660;2024-03-06T10:51:13;4.47;;;2.15;;
26920;SDS011;14483;47.844;9.660;2024-03-06T10:53:39;3.85;;;2.20;;
26920;SDS011;14483;47.844;9.660;2024-03-06T10:56:08;5.53;;;2.05;;
26920;SDS011;14483;47.844;9.660;2024-03-06T10:58:36;2.78;;;1.73;;
26920;SDS011;14483;47.844;9.660;2024-03-06T11:01:03;2.67;;;1.52;;
26920;SDS011;14483;47.844;9.660;2024-03-06T11:03:30;4.32;;;1.77;;
26920;SDS011;14483;47.844;9.660;2024-03-06T11:05:56;2.55;;;1.42;;
26920;SDS011;14483;47.844;9.660;2024-03-06T11:08:23;3.97;;;2.05;;
26920;SDS011;14483;47.844;9.660;2024-03-06T11:10:50;2.22;;;1.27;;
26920;SDS011;14483;47.844;9.660;2024-03-06T11:13:20;3.85;;;2.10;;
26920;SDS011;14483;47.844;9.660;2024-03-06T11:15:48;3.05;;;1.75;;
26920;SDS011;14483;47.844;9.660;2024-03-06T11:26:23;2.42;;;1.70;;
26920;SDS011;14483;47.844;9.660;2024-03-06T11:28:50;2.78;;;1.33;;
26920;SDS011;14483;47.844;9.660;2024-03-06T11:31:18;3.28;;;1.67;;
26920;SDS011;14483;47.844;9.660;2024-03-06T11:33:46;2.20;;;1.05;;
26920;SDS011;14483;47.844;9.660;2024-03-06T11:36:17;1.88;;;1.67;;
26920;SDS011;14483;47.844;9.660;2024-03-06T11:38:47;3.10;;;1.50;;
26920;SDS011;14483;47.844;9.660;2024-03-06T11:41:13;2.00;;;1.02;;
26920;SDS011;14483;47.844;9.660;2024-03-06T11:43:43;1.67;;;1.00;;
26920;SDS011;14483;47.844;9.660;2024-03-06T11:46:09;1.63;;;0.90;;
26920;SDS011;14483;47.844;9.660;2024-03-06T11:48:37;4.18;;;1.95;;
26920;SDS011;14483;47.844;9.660;2024-03-06T11:51:04;2.05;;;1.27;;
26920;SDS011;14483;47.844;9.660;2024-03-06T11:53:30;1.48;;;0.60;;
26920;SDS011;14483;47.844;9.660;2024-03-06T11:55:58;1.23;;;0.60;;
26920;SDS011;14483;47.844;9.660;2024-03-06T11:58:25;3.33;;;0.88;;
26920;SDS011;14483;47.844;9.660;2024-03-06T12:00:51;1.17;;;0.60;;
26920;SDS011;14483;47.844;9.660;2024-03-06T12:03:19;0.80;;;0.55;;
26920;SDS011;14483;47.844;9.660;2024-03-06T12:05:49;1.17;;;0.40;;
26920;SDS011;14483;47.844;9.660;2024-03-06T12:08:16;0.77;;;0.30;;
26920;SDS011;14483;47.844;9.660;2024-03-06T12:10:42;1.55;;;0.50;;
26920;SDS011;14483;47.844;9.660;2024-03-06T12:13:09;2.58;;;0.40;;
26920;SDS011;14483;47.844;9.660;2024-03-06T12:15:35;0.90;;;0.40;;
26920;SDS011;14483;47.844;9.660;2024-03-06T12:18:02;1.23;;;0.55;;
26920;SDS011;14483;47.844;9.660;2024-03-06T12:20:28;0.82;;;0.40;;
26920;SDS011;14483;47.844;9.660;2024-03-06T12:22:56;1.00;;;0.50;;
26920;SDS011;14483;47.844;9.660;2024-03-06T12:25:23;1.35;;;0.50;;
26920;SDS011;14483;47.844;9.660;2024-03-06T12:27:51;0.60;;;0.30;;
26920;SDS011;14483;47.844;9.660;2024-03-06T12:30:17;0.85;;;0.45;;
26920;SDS011;14483;47.844;9.660;2024-03-06T12:32:55;1.02;;;0.50;;
26920;SDS011;14483;47.844;9.660;2024-03-06T12:35:23;0.43;;;0.30;;
26920;SDS011;14483;47.844;9.660;2024-03-06T12:37:50;0.80;;;0.40;;
26920;SDS011;14483;47.844;9.660;2024-03-06T12:40:17;0.70;;;0.40;;
26920;SDS011;14483;47.844;9.660;2024-03-06T12:42:44;1.50;;;0.40;;
26920;SDS011;14483;47.844;9.660;2024-03-06T12:45:11;0.50;;;0.30;;
26920;SDS011;14483;47.844;9.660;2024-03-06T12:47:38;0.80;;;0.38;;
26920;SDS011;14483;47.844;9.660;2024-03-06T12:50:06;0.68;;;0.40;;
26920;SDS011;14483;47.844;9.660;2024-03-06T12:52:33;0.50;;;0.25;;
26920;SDS011;14483;47.844;9.660;2024-03-06T12:54:59;0.52;;;0.20;;
26920;SDS011;14483;47.844;9.660;2024-03-06T12:57:27;0.93;;;0.30;;
26920;SDS011;14483;47.844;9.660;2024-03-06T12:59:53;0.28;;;0.13;;
26920;SDS011;14483;47.844;9.660;2024-03-06T13:02:20;0.50;;;0.20;;
26920;SDS011;14483;47.844;9.660;2024-03-06T13:04:46;1.48;;;0.77;;
26920;SDS011;14483;47.844;9.660;2024-03-06T13:07:12;1.52;;;0.80;;
26920;SDS011;14483;47.844;9.660;2024-03-06T13:09:39;0.40;;;0.25;;
26920;SDS011;14483;47.844;9.660;2024-03-06T13:12:06;0.40;;;0.20;;
26920;SDS011;14483;47.844;9.660;2024-03-06T13:14:33;0.40;;;0.20;;
26920;SDS011;14483;47.844;9.660;2024-03-06T13:17:00;0.47;;;0.30;;
26920;SDS011;14483;47.844;9.660;2024-03-06T13:19:27;0.45;;;0.20;;
26920;SDS011;14483;47.844;9.660;2024-03-06T13:21:53;1.17;;;0.30;;
26920;SDS011;14483;47.844;9.660;2024-03-06T13:24:20;2.97;;;0.25;;
26920;SDS011;14483;47.844;9.660;2024-03-06T13:26:47;0.57;;;0.10;;
26920;SDS011;14483;47.844;9.660;2024-03-06T13:29:13;0.22;;;0.10;;
26920;SDS011;14483;47.844;9.660;2024-03-06T13:31:41;0.40;;;0.13;;
26920;SDS011;14483;47.844;9.660;2024-03-06T13:34:07;0.50;;;0.20;;
26920;SDS011;14483;47.844;9.660;2024-03-06T13:36:34;0.38;;;0.20;;
26920;SDS011;14483;47.844;9.660;2024-03-06T13:39:00;0.50;;;0.20;;
26920;SDS011;14483;47.844;9.660;2024-03-06T13:41:26;0.35;;;0.10;;
26920;SDS011;14483;47.844;9.660;2024-03-06T13:43:54;0.32;;;0.20;;
26920;SDS011;14483;47.844;9.660;2024-03-06T13:46:21;0.28;;;0.20;;
26920;SDS011;14483;47.844;9.660;2024-03-06T13:48:49;0.30;;;0.20;;
26920;SDS011;14483;47.844;9.660;2024-03-06T13:51:15;0.30;;;0.13;;
26920;SDS011;14483;47.844;9.660;2024-03-06T13:53:41;0.30;;;0.13;;
26920;SDS011;14483;47.844;9.660;2024-03-06T13:56:08;0.50;;;0.20;;
26920;SDS011;14483;47.844;9.660;2024-03-06T13:58:34;0.40;;;0.10;;
26920;SDS011;14483;47.844;9.660;2024-03-06T14:01:01;0.30;;;0.10;;
26920;SDS011;14483;47.844;9.660;2024-03-06T14:03:27;0.45;;;0.20;;
26920;SDS011;14483;47.844;9.660;2024-03-06T14:05:55;0.35;;;0.20;;
26920;SDS011;14483;47.844;9.660;2024-03-06T14:08:21;0.85;;;0.30;;
26920;SDS011;14483;47.844;9.660;2024-03-06T14:10:48;0.30;;;0.20;;
26920;SDS011;14483;47.844;9.660;2024-03-06T14:13:14;1.02;;;0.40;;
26920;SDS011;14483;47.844;9.660;2024-03-06T14:15:41;0.85;;;0.20;;
26920;SDS011;14483;47.844;9.660;2024-03-06T14:18:07;0.47;;;0.30;;
26920;SDS011;14483;47.844;9.660;2024-03-06T14:20:33;0.32;;;0.20;;
26920;SDS011;14483;47.844;9.660;2024-03-06T14:23:01;0.20;;;0.20;;
26920;SDS011;14483;47.844;9.660;2024-03-06T14:25:27;0.57;;;0.22;;
26920;SDS011;14483;47.844;9.660;2024-03-06T14:27:54;0.73;;;0.17;;
26920;SDS011;14483;47.844;9.660;2024-03-06T14:30:20;0.80;;;0.30;;
26920;SDS011;14483;47.844;9.660;2024-03-06T14:32:47;0.85;;;0.32;;
26920;SDS011;14483;47.844;9.660;2024-03-06T14:35:13;0.65;;;0.25;;
26920;SDS011;14483;47.844;9.660;2024-03-06T14:37:40;0.50;;;0.30;;
26920;SDS011;14483;47.844;9.660;2024-03-06T14:40:08;0.90;;;0.32;;
26920;SDS011;14483;47.844;9.660;2024-03-06T14:42:35;2.20;;;0.65;;
26920;SDS011;14483;47.844;9.660;2024-03-06T14:45:02;1.65;;;0.52;;
26920;SDS011;14483;47.844;9.660;2024-03-06T14:47:31;1.33;;;0.60;;
26920;SDS011;14483;47.844;9.660;2024-03-06T14:49:57;0.80;;;0.30;;
26920;SDS011;14483;47.844;9.660;2024-03-06T14:52:23;0.73;;;0.40;;
26920;SDS011;14483;47.844;9.660;2024-03-06T14:54:51;1.33;;;0.50;;
26920;SDS011;14483;47.844;9.660;2024-03-06T14:57:19;1.35;;;0.40;;